createdAt,value
2022-10-29T10:52:49.350Z,14.00
2022-10-29T10:55:24.325Z,13.90
2022-10-29T10:58:00.535Z,14.00
2022-10-29T11:00:32.783Z,14.00
2022-10-29T11:06:08.070Z,13.90
2022-10-29T11:08:56.231Z,14.00
2022-10-29T11:11:37.109Z,14.00
2022-10-29T11:14:08.241Z,14.00
2022-10-29T11:16:40.163Z,14.20
2022-10-29T11:19:14.067Z,14.20
2022-10-29T11:21:46.220Z,14.20
2022-10-29T11:24:18.327Z,14.20
2022-10-29T11:26:54.805Z,14.20
2022-10-29T11:29:26.349Z,14.20
2022-10-29T11:31:58.121Z,14.20
2022-10-29T11:34:31.628Z,14.20
2022-10-29T11:37:02.737Z,14.20
2022-10-29T11:39:33.504Z,14.10
2022-10-29T11:42:07.105Z,14.20
2022-10-29T11:44:38.407Z,14.20
2022-10-29T11:47:14.247Z,14.10
2022-10-29T11:50:00.415Z,14.10
2022-10-29T11:52:35.552Z,14.10
2022-10-29T11:55:12.322Z,14.10
2022-10-29T11:57:47.418Z,14.20
2022-10-29T12:00:20.083Z,14.20
2022-10-29T12:03:01.378Z,14.10
2022-10-29T12:05:34.645Z,14.10
2022-10-29T12:08:21.971Z,14.10
2022-10-29T12:10:52.056Z,14.10
2022-10-29T12:13:31.657Z,14.00
2022-10-29T12:16:13.108Z,14.10
2022-10-29T12:18:47.130Z,14.10
2022-10-29T12:21:19.464Z,14.10
2022-10-29T12:24:03.538Z,14.10
2022-10-29T12:26:36.439Z,14.10
2022-10-29T12:29:11.507Z,14.10
2022-10-29T12:31:46.755Z,14.00
2022-10-29T12:34:20.036Z,14.00
2022-10-29T12:36:53.312Z,14.00
2022-10-29T12:39:30.294Z,14.00
2022-10-29T12:42:00.937Z,13.90
2022-10-29T12:44:53.916Z,13.90
2022-10-29T12:47:26.241Z,14.00
2022-10-29T12:50:04.012Z,14.00
2022-10-29T12:52:37.007Z,14.00
2022-10-29T12:55:06.557Z,14.00
2022-10-29T12:57:35.385Z,14.10
2022-10-29T13:00:24.167Z,14.10
2022-10-29T13:02:54.192Z,14.10
2022-10-29T13:05:39.917Z,14.20
2022-10-29T13:08:25.696Z,14.20
2022-10-29T13:10:55.170Z,14.20
2022-10-29T13:13:47.025Z,14.10
2022-10-29T13:16:16.961Z,13.90
2022-10-29T13:18:54.545Z,13.80
2022-10-29T13:21:41.003Z,13.90
2022-10-29T13:24:16.724Z,13.90
2022-10-29T13:26:55.125Z,13.90
2022-10-29T13:29:41.953Z,14.00
2022-10-29T13:32:10.258Z,14.00
2022-10-29T13:34:53.209Z,14.00
2022-10-29T13:37:41.115Z,14.00
2022-10-29T13:40:23.999Z,14.00
2022-10-29T13:42:57.687Z,14.00
2022-10-29T13:45:26.245Z,14.00
2022-10-29T13:47:55.301Z,13.90
2022-10-29T13:50:25.540Z,13.90
2022-10-29T13:52:55.481Z,13.90
2022-10-29T13:55:26.569Z,13.90
2022-10-29T13:58:00.514Z,13.90
2022-10-29T14:00:36.687Z,13.90
2022-10-29T14:03:10.842Z,13.70
2022-10-29T14:05:46.863Z,13.70
2022-10-29T14:08:18.848Z,13.60
2022-10-29T14:10:48.723Z,13.60
2022-10-29T14:13:25.007Z,13.50
2022-10-29T14:16:03.200Z,13.50
2022-10-29T14:18:32.685Z,13.50
2022-10-29T14:21:06.755Z,13.40
2022-10-29T14:23:35.103Z,13.30
2022-10-29T14:26:06.768Z,13.30
2022-10-29T14:28:39.292Z,13.30
2022-10-29T14:31:08.056Z,13.20
2022-10-29T14:33:36.896Z,13.20
2022-10-29T14:36:14.191Z,13.30
2022-10-29T14:38:44.117Z,13.20
2022-10-29T14:41:12.990Z,13.20
2022-10-29T14:43:41.835Z,13.10
2022-10-29T14:46:22.093Z,13.10
2022-10-29T14:48:55.879Z,13.00
2022-10-29T14:51:25.808Z,13.00
2022-10-29T14:53:55.316Z,13.10
2022-10-29T14:56:28.382Z,13.00
2022-10-29T14:58:56.909Z,13.00
2022-10-29T15:01:25.223Z,12.90
2022-10-29T15:03:57.949Z,12.90
2022-10-29T15:06:31.581Z,12.90
2022-10-29T15:09:00.708Z,12.90
2022-10-29T15:11:39.023Z,12.80
2022-10-29T15:14:23.349Z,12.80
2022-10-29T15:16:54.308Z,12.80
2022-10-29T15:19:22.881Z,12.80
2022-10-29T15:21:52.474Z,12.80
2022-10-29T15:24:23.795Z,12.80
2022-10-29T15:26:53.326Z,12.80
2022-10-29T15:29:26.789Z,12.70
2022-10-29T15:31:58.890Z,12.70
2022-10-29T15:34:32.534Z,12.60
2022-10-29T15:37:15.487Z,12.70
2022-10-29T15:40:01.204Z,12.60
2022-10-29T15:42:30.193Z,12.50
2022-10-29T15:45:10.211Z,12.50
2022-10-29T15:47:39.216Z,12.50
2022-10-29T15:50:08.561Z,12.50
2022-10-29T15:52:39.881Z,12.60
2022-10-29T15:55:11.895Z,12.70
2022-10-29T15:57:40.179Z,12.70
2022-10-29T16:00:09.538Z,12.70
2022-10-29T16:02:37.685Z,12.70
2022-10-29T16:05:06.342Z,12.80
2022-10-29T16:07:34.823Z,12.90
2022-10-29T16:10:04.531Z,12.80
2022-10-29T16:12:32.844Z,12.80
2022-10-29T16:15:00.875Z,12.60
2022-10-29T16:17:29.250Z,12.60
2022-10-29T16:19:57.366Z,12.50
2022-10-29T16:22:28.204Z,12.40
2022-10-29T16:24:56.613Z,12.30
2022-10-29T16:27:26.170Z,12.10
2022-10-29T16:29:54.231Z,11.90
2022-10-29T16:32:23.152Z,11.60
2022-10-29T16:34:52.339Z,11.40
2022-10-29T16:37:21.401Z,11.30
2022-10-29T16:39:49.519Z,11.20
2022-10-29T16:42:35.220Z,11.10
2022-10-29T16:45:05.190Z,10.90
2022-10-29T16:47:33.359Z,10.90
2022-10-29T16:50:01.442Z,10.80
2022-10-29T16:52:29.967Z,10.80
2022-10-29T16:54:58.089Z,10.70
2022-10-29T16:57:26.558Z,10.70
2022-10-29T16:59:54.598Z,10.60
2022-10-29T17:02:24.233Z,10.50
2022-10-29T17:04:52.672Z,10.50
2022-10-29T17:07:20.761Z,10.50
2022-10-29T17:09:49.143Z,10.40
2022-10-29T17:12:17.399Z,10.30
2022-10-29T17:14:45.472Z,10.50
2022-10-29T17:17:14.284Z,10.30
2022-10-29T17:19:43.717Z,10.20
2022-10-29T17:22:15.932Z,10.20
2022-10-29T17:24:44.188Z,10.10
2022-10-29T17:27:12.561Z,10.10
2022-10-29T17:29:40.647Z,10.10
2022-10-29T17:32:12.337Z,10.10
2022-10-29T17:34:40.400Z,10.00
2022-10-29T17:37:12.567Z,10.10
2022-10-29T17:39:40.643Z,10.00
2022-10-29T17:42:08.775Z,10.00
2022-10-29T17:44:37.087Z,10.00
2022-10-29T17:47:05.239Z,10.00
2022-10-29T17:49:38.512Z,9.90
2022-10-29T17:52:07.286Z,9.90
2022-10-29T17:54:36.895Z,9.80
2022-10-29T17:57:05.304Z,9.80
2022-10-29T17:59:36.140Z,9.80
2022-10-29T18:02:07.407Z,9.80
2022-10-29T18:04:35.620Z,9.80
2022-10-29T18:07:03.673Z,9.70
2022-10-29T18:09:31.837Z,9.70
2022-10-29T18:12:01.544Z,9.60
2022-10-29T18:14:29.657Z,9.70
2022-10-29T18:16:58.600Z,9.60
2022-10-29T18:19:27.112Z,9.60
2022-10-29T18:21:55.319Z,9.50
2022-10-29T18:24:24.287Z,9.50
2022-10-29T18:26:52.544Z,9.50
2022-10-29T18:29:22.042Z,9.40
2022-10-29T18:31:50.355Z,9.40
2022-10-29T18:34:19.657Z,9.40
2022-10-29T18:36:53.278Z,9.40
2022-10-29T18:39:21.725Z,9.40
2022-10-29T18:41:52.596Z,9.30
2022-10-29T18:44:22.146Z,9.20
2022-10-29T18:49:19.028Z,9.50
2022-10-29T18:51:49.444Z,9.20
2022-10-29T18:54:17.634Z,9.20
2022-10-29T18:56:46.023Z,9.20
2022-10-29T18:59:14.172Z,9.10
2022-10-29T19:01:44.015Z,9.10
2022-10-29T19:04:14.138Z,9.00
2022-10-29T19:06:42.421Z,9.00
2022-10-29T19:09:14.235Z,9.00
2022-10-29T19:11:45.386Z,9.00
2022-10-29T19:16:47.737Z,8.90
2022-10-29T19:19:18.378Z,8.90
2022-10-29T19:21:49.614Z,8.90
2022-10-29T19:24:20.810Z,8.80
2022-10-29T19:26:58.641Z,8.70
2022-10-29T19:29:26.814Z,8.80
2022-10-29T19:31:56.500Z,8.80
2022-10-29T19:34:24.945Z,8.70
2022-10-29T19:36:53.168Z,8.70
2022-10-29T19:39:21.564Z,8.70
2022-10-29T19:41:50.900Z,8.70
2022-10-29T19:44:19.310Z,8.60
2022-10-29T19:46:47.429Z,8.60
2022-10-29T19:49:17.121Z,8.70
2022-10-29T19:51:46.457Z,8.70
2022-10-29T19:54:14.537Z,8.70
2022-10-29T19:56:42.636Z,8.60
2022-10-29T19:59:10.837Z,8.60
2022-10-29T20:01:43.841Z,8.60
2022-10-29T20:04:12.478Z,8.60
2022-10-29T20:06:42.094Z,8.50
2022-10-29T20:09:10.327Z,8.40
2022-10-29T20:11:38.422Z,8.50
2022-10-29T20:14:06.639Z,8.30
2022-10-29T20:16:34.709Z,8.30
2022-10-29T20:19:04.827Z,8.20
2022-10-29T20:21:32.943Z,8.30
2022-10-29T20:24:02.499Z,8.30
2022-10-29T20:26:31.338Z,8.30
2022-10-29T20:28:59.642Z,8.20
2022-10-29T20:31:30.429Z,8.10
2022-10-29T20:34:00.572Z,8.10
2022-10-29T20:36:30.107Z,8.10
2022-10-29T20:38:58.506Z,8.10
2022-10-29T20:41:28.300Z,8.00
2022-10-29T20:43:57.007Z,8.00
2022-10-29T20:46:25.671Z,7.90
2022-10-29T20:48:54.007Z,7.90
2022-10-29T20:51:25.855Z,7.80
2022-10-29T20:53:54.214Z,7.80
2022-10-29T20:56:22.859Z,7.80
2022-10-29T20:58:52.455Z,7.80
2022-10-29T21:01:21.762Z,7.80
2022-10-29T21:03:50.548Z,7.80
2022-10-29T21:06:22.148Z,7.70
2022-10-29T21:08:51.006Z,7.80
2022-10-29T21:11:19.877Z,7.70
2022-10-29T21:13:54.087Z,7.70
2022-10-29T21:16:27.672Z,7.60
2022-10-29T21:18:56.809Z,7.60
2022-10-29T21:21:24.929Z,7.60
2022-10-29T21:23:53.341Z,7.50
2022-10-29T21:26:22.695Z,7.40
2022-10-29T21:28:51.305Z,7.40
2022-10-29T21:31:20.520Z,7.50
2022-10-29T21:33:53.849Z,7.40
2022-10-29T21:36:22.568Z,7.40
2022-10-29T21:38:50.779Z,7.40
2022-10-29T21:41:19.436Z,7.40
2022-10-29T21:43:48.427Z,7.30
2022-10-29T21:46:16.556Z,7.20
2022-10-29T21:48:47.334Z,7.30
2022-10-29T21:51:18.523Z,7.30
2022-10-29T21:53:46.941Z,7.40
2022-10-29T21:56:15.654Z,7.30
2022-10-29T21:58:44.230Z,7.20
2022-10-29T22:01:16.082Z,7.10
2022-10-29T22:03:47.657Z,7.00
2022-10-29T22:06:18.252Z,7.00
2022-10-29T22:08:48.826Z,7.00
2022-10-29T22:11:17.028Z,7.00
2022-10-29T22:13:47.027Z,6.90
2022-10-29T22:16:16.305Z,6.80
2022-10-29T22:18:44.868Z,6.80
2022-10-29T22:21:13.880Z,6.80
2022-10-29T22:23:46.900Z,6.80
2022-10-29T22:26:19.749Z,6.70
2022-10-29T22:28:48.862Z,6.60
2022-10-29T22:31:18.010Z,6.60
2022-10-29T22:33:46.552Z,6.60
2022-10-29T22:36:15.937Z,6.60
2022-10-29T22:38:44.629Z,6.60
2022-10-29T22:41:20.029Z,6.60
2022-10-29T22:43:49.556Z,6.60
2022-10-29T22:46:20.939Z,6.60
2022-10-29T22:48:50.253Z,6.50
2022-10-29T22:51:20.582Z,6.50
2022-10-29T22:53:49.372Z,6.50
2022-10-29T22:56:18.674Z,6.40
2022-10-29T22:58:47.470Z,6.40
2022-10-29T23:01:18.114Z,6.30
2022-10-29T23:03:46.875Z,6.20
2022-10-29T23:06:16.967Z,6.20
2022-10-29T23:08:45.512Z,6.10
2022-10-29T23:11:16.724Z,6.00
2022-10-29T23:13:45.967Z,6.00
2022-10-29T23:16:14.470Z,5.90
2022-10-29T23:18:44.009Z,5.90
2022-10-29T23:21:12.204Z,5.80
2022-10-29T23:23:40.309Z,5.60
2022-10-29T23:26:08.384Z,5.50
2022-10-29T23:28:38.525Z,5.60
2022-10-29T23:31:16.168Z,5.60
2022-10-29T23:33:49.637Z,5.50
2022-10-29T23:36:20.428Z,5.50
2022-10-29T23:38:56.695Z,5.60
2022-10-29T23:41:24.895Z,5.60
2022-10-29T23:43:53.146Z,5.50
2022-10-29T23:46:23.292Z,5.30
2022-10-29T23:48:52.883Z,5.40
2022-10-29T23:51:21.097Z,5.40
2022-10-29T23:53:51.805Z,5.00
2022-10-29T23:56:22.983Z,5.30
2022-10-29T23:58:51.064Z,5.30
